Station Historical Data
Daily Summary for February 10, 2017 Units:  Both    English   Metric
« Previous Day
Next Day »
Daily Weekly Monthly Yearly Custom
  High: Low: Average:
Temperature: 31.1 °F /  -0.5 °C 17.5 °F /  -8.1 °C 22.5 °F /  -5.3 °C
Dew Point: 20.9 °F /  -6.2 °C 8.5 °F /  -13.1 °C 14.7 °F /  -9.6 °C
Humidity: 88% 58% 72%
Wind Speed: 16.0mph /  25.7km/h - 5.6mph /  9km/h
Wind Gust: 23.0mph /  37km/h - -
Wind- - SW
Pressure: 30.31 in /  1026.3 hPa 29.81 in /  1009.4 hPa -
Precipitation: 0.00 in /  0 mm    
Historical Graphs
 
 
Tabular Data for February 10, 2017
Time Temperature Dew Point Pressure Wind Wind Speed Wind Gust Humidity Rainfall Rate (Hourly)
00:04 18.1 °F /  -7.7 °C 10.6 °F /  -11.9 °C 30.18in /  1021.9hPa WNW 3.0mph /  4.8km/h 14.0mph /  22.5km/h 72% 0.00in /  0mm
00:09 18.0 °F /  -7.8 °C 10.5 °F /  -11.9 °C 30.17in /  1021.6hPa West 8.0mph /  12.9km/h 16.0mph /  25.7km/h 72% 0.00in /  0mm
00:14 18.0 °F /  -7.8 °C 10.5 °F /  -11.9 °C 30.17in /  1021.6hPa West 7.0mph /  11.3km/h 16.0mph /  25.7km/h 72% 0.00in /  0mm
00:19 18.0 °F /  -7.8 °C 10.5 °F /  -11.9 °C 30.17in /  1021.6hPa West 7.0mph /  11.3km/h 16.0mph /  25.7km/h 72% 0.00in /  0mm
00:24 18.0 °F /  -7.8 °C 10.5 °F /  -11.9 °C 30.17in /  1021.6hPa West 9.0mph /  14.5km/h 13.0mph /  20.9km/h 72% 0.00in /  0mm
00:29 18.1 °F /  -7.7 °C 10.3 °F /  -12.1 °C 30.17in /  1021.6hPa West 7.0mph /  11.3km/h 13.0mph /  20.9km/h 71% 0.00in /  0mm
00:34 18.2 °F /  -7.7 °C 10.4 °F /  -12 °C 30.17in /  1021.6hPa WSW 9.0mph /  14.5km/h 19.0mph /  30.6km/h 71% 0.00in /  0mm
00:39 18.2 °F /  -7.7 °C 10.4 °F /  -12 °C 30.17in /  1021.6hPa West 3.0mph /  4.8km/h 16.0mph /  25.7km/h 71% 0.00in /  0mm
00:44 18.1 °F /  -7.7 °C 10.3 °F /  -12.1 °C 30.17in /  1021.6hPa WSW 7.0mph /  11.3km/h 9.0mph /  14.5km/h 71% 0.00in /  0mm
00:49 18.2 °F /  -7.7 °C 10.4 °F /  -12 °C 30.17in /  1021.6hPa West 7.0mph /  11.3km/h 16.0mph /  25.7km/h 71% 0.00in /  0mm
00:54 18.3 °F /  -7.6 °C 10.5 °F /  -11.9 °C 30.17in /  1021.6hPa West 9.0mph /  14.5km/h 19.0mph /  30.6km/h 71% 0.00in /  0mm
00:59 18.3 °F /  -7.6 °C 10.5 °F /  -11.9 °C 30.18in /  1021.9hPa West 10.0mph /  16.1km/h 20.0mph /  32.2km/h 71% 0.00in /  0mm
01:04 18.2 °F /  -7.7 °C 10.4 °F /  -12 °C 30.18in /  1021.9hPa West 9.0mph /  14.5km/h 20.0mph /  32.2km/h 71% 0.00in /  0mm
01:09 18.2 °F /  -7.7 °C 10.4 °F /  -12 °C 30.18in /  1021.9hPa West 6.0mph /  9.7km/h 17.0mph /  27.4km/h 71% 0.00in /  0mm
01:14 18.2 °F /  -7.7 °C 10.4 °F /  -12 °C 30.18in /  1021.9hPa WSW 4.0mph /  6.4km/h 15.0mph /  24.1km/h 71% 0.00in /  0mm
01:19 18.2 °F /  -7.7 °C 10.4 °F /  -12 °C 30.19in /  1022.2hPa WSW 8.0mph /  12.9km/h 19.0mph /  30.6km/h 71% 0.00in /  0mm
01:24 18.1 °F /  -7.7 °C 10.3 °F /  -12.1 °C 30.19in /  1022.2hPa West 7.0mph /  11.3km/h 19.0mph /  30.6km/h 71% 0.00in /  0mm
01:29 18.0 °F /  -7.8 °C 10.2 °F /  -12.1 °C 30.19in /  1022.2hPa West 7.0mph /  11.3km/h 15.0mph /  24.1km/h 71% 0.00in /  0mm
01:34 18.1 °F /  -7.7 °C 10.3 °F /  -12.1 °C 30.19in /  1022.2hPa WSW 7.0mph /  11.3km/h 15.0mph /  24.1km/h 71% 0.00in /  0mm
01:39 18.2 °F /  -7.7 °C 10.1 °F /  -12.2 °C 30.20in /  1022.6hPa West 4.0mph /  6.4km/h 16.0mph /  25.7km/h 70% 0.00in /  0mm
01:44 18.2 °F /  -7.7 °C 10.1 °F /  -12.2 °C 30.20in /  1022.6hPa West 8.0mph /  12.9km/h 15.0mph /  24.1km/h 70% 0.00in /  0mm
01:49 18.2 °F /  -7.7 °C 10.1 °F /  -12.2 °C 30.20in /  1022.6hPa West 7.0mph /  11.3km/h 14.0mph /  22.5km/h 70% 0.00in /  0mm
01:54 18.2 °F /  -7.7 °C 10.1 °F /  -12.2 °C 30.20in /  1022.6hPa West 8.0mph /  12.9km/h 16.0mph /  25.7km/h 70% 0.00in /  0mm
01:59 18.2 °F /  -7.7 °C 10.1 °F /  -12.2 °C 30.20in /  1022.6hPa West 8.0mph /  12.9km/h 16.0mph /  25.7km/h 70% 0.00in /  0mm
02:04 18.2 °F /  -7.7 °C 10.1 °F /  -12.2 °C 30.20in /  1022.6hPa West 7.0mph /  11.3km/h 19.0mph /  30.6km/h 70% 0.00in /  0mm
02:09 18.2 °F /  -7.7 °C 10.1 °F /  -12.2 °C 30.21in /  1022.9hPa WSW 8.0mph /  12.9km/h 11.0mph /  17.7km/h 70% 0.00in /  0mm
02:14 18.2 °F /  -7.7 °C 10.1 °F /  -12.2 °C 30.21in /  1022.9hPa West 8.0mph /  12.9km/h 14.0mph /  22.5km/h 70% 0.00in /  0mm
02:19 18.4 °F /  -7.6 °C 10.2 °F /  -12.1 °C 30.21in /  1022.9hPa West 9.0mph /  14.5km/h 16.0mph /  25.7km/h 70% 0.00in /  0mm
02:24 18.4 °F /  -7.6 °C 10.2 °F /  -12.1 °C 30.21in /  1022.9hPa West 8.0mph /  12.9km/h 18.0mph /  29km/h 70% 0.00in /  0mm
02:29 18.5 °F /  -7.5 °C 10.3 °F /  -12.1 °C 30.22in /  1023.2hPa West 9.0mph /  14.5km/h 18.0mph /  29km/h 70% 0.00in /  0mm
02:34 18.5 °F /  -7.5 °C 10.0 °F /  -12.2 °C 30.22in /  1023.2hPa West 9.0mph /  14.5km/h 18.0mph /  29km/h 69% 0.00in /  0mm
02:39 18.5 °F /  -7.5 °C 10.3 °F /  -12.1 °C 30.22in /  1023.2hPa West 8.0mph /  12.9km/h 18.0mph /  29km/h 70% 0.00in /  0mm
02:44 18.5 °F /  -7.5 °C 10.3 °F /  -12.1 °C 30.23in /  1023.6hPa West 9.0mph /  14.5km/h 19.0mph /  30.6km/h 70% 0.00in /  0mm
02:49 18.5 °F /  -7.5 °C 10.3 °F /  -12.1 °C 30.23in /  1023.6hPa West 6.0mph /  9.7km/h 14.0mph /  22.5km/h 70% 0.00in /  0mm
02:54 18.4 °F /  -7.6 °C 10.2 °F /  -12.1 °C 30.23in /  1023.6hPa WNW 6.0mph /  9.7km/h 18.0mph /  29km/h 70% 0.00in /  0mm
02:59 18.3 °F /  -7.6 °C 10.1 °F /  -12.2 °C 30.24in /  1023.9hPa West 5.0mph /  8km/h 18.0mph /  29km/h 70% 0.00in /  0mm
03:04 18.2 °F /  -7.7 °C 10.1 °F /  -12.2 °C 30.23in /  1023.6hPa West 8.0mph /  12.9km/h 18.0mph /  29km/h 70% 0.00in /  0mm
03:09 18.1 °F /  -7.7 °C 10.0 °F /  -12.2 °C 30.24in /  1023.9hPa WSW 7.0mph /  11.3km/h 17.0mph /  27.4km/h 70% 0.00in /  0mm
03:14 18.1 °F /  -7.7 °C 10.3 °F /  -12.1 °C 30.24in /  1023.9hPa WNW 11.0mph /  17.7km/h 15.0mph /  24.1km/h 71% 0.00in /  0mm
03:19 18.0 °F /  -7.8 °C 10.2 °F /  -12.1 °C 30.24in /  1023.9hPa West 11.0mph /  17.7km/h 23.0mph /  37km/h 71% 0.00in /  0mm
03:24 18.0 °F /  -7.8 °C 10.2 °F /  -12.1 °C 30.24in /  1023.9hPa West 10.0mph /  16.1km/h 15.0mph /  24.1km/h 71% 0.00in /  0mm
03:29 17.9 °F /  -7.8 °C 10.4 °F /  -12 °C 30.24in /  1023.9hPa West 11.0mph /  17.7km/h 17.0mph /  27.4km/h 72% 0.00in /  0mm
03:34 17.8 °F /  -7.9 °C 10.3 °F /  -12.1 °C 30.25in /  1024.3hPa West 7.0mph /  11.3km/h 21.0mph /  33.8km/h 72% 0.00in /  0mm
03:39 17.7 °F /  -7.9 °C 10.5 °F /  -11.9 °C 30.25in /  1024.3hPa West 8.0mph /  12.9km/h 21.0mph /  33.8km/h 73% 0.00in /  0mm
03:44 17.6 °F /  -8 °C 10.4 °F /  -12 °C 30.25in /  1024.3hPa West 8.0mph /  12.9km/h 16.0mph /  25.7km/h 73% 0.00in /  0mm
03:49 17.5 °F /  -8.1 °C 10.6 °F /  -11.9 °C 30.26in /  1024.6hPa West 7.0mph /  11.3km/h 17.0mph /  27.4km/h 74% 0.00in /  0mm
03:54 17.5 °F /  -8.1 °C 10.6 °F /  -11.9 °C 30.25in /  1024.3hPa West 6.0mph /  9.7km/h 17.0mph /  27.4km/h 74% 0.00in /  0mm
03:59 17.5 °F /  -8.1 °C 10.6 °F /  -11.9 °C 30.26in /  1024.6hPa West 7.0mph /  11.3km/h 16.0mph /  25.7km/h 74% 0.00in /  0mm
04:04 17.5 °F /  -8.1 °C 10.6 °F /  -11.9 °C 30.26in /  1024.6hPa West 8.0mph /  12.9km/h 16.0mph /  25.7km/h 74% 0.00in /  0mm
04:09 17.5 °F /  -8.1 °C 10.6 °F /  -11.9 °C 30.26in /  1024.6hPa West 4.0mph /  6.4km/h 18.0mph /  29km/h 74% 0.00in /  0mm
04:14 17.5 °F /  -8.1 °C 10.6 °F /  -11.9 °C 30.26in /  1024.6hPa NW 9.0mph /  14.5km/h 14.0mph /  22.5km/h 74% 0.00in /  0mm
04:19 17.5 °F /  -8.1 °C 10.3 °F /  -12.1 °C 30.26in /  1024.6hPa WSW 7.0mph /  11.3km/h 14.0mph /  22.5km/h 73% 0.00in /  0mm
04:24 17.7 °F /  -7.9 °C 10.5 °F /  -11.9 °C 30.26in /  1024.6hPa West 12.0mph /  19.3km/h 16.0mph /  25.7km/h 73% 0.00in /  0mm
04:29 17.7 °F /  -7.9 °C 10.2 °F /  -12.1 °C 30.26in /  1024.6hPa WNW 5.0mph /  8km/h 16.0mph /  25.7km/h 72% 0.00in /  0mm
04:34 17.8 °F /  -7.9 °C 10.0 °F /  -12.2 °C 30.26in /  1024.6hPa SW 16.0mph /  25.7km/h 17.0mph /  27.4km/h 71% 0.00in /  0mm
04:39 17.9 °F /  -7.8 °C 10.1 °F /  -12.2 °C 30.26in /  1024.6hPa WSW 9.0mph /  14.5km/h 17.0mph /  27.4km/h 71% 0.00in /  0mm
04:44 17.9 °F /  -7.8 °C 9.8 °F /  -12.3 °C 30.26in /  1024.6hPa WSW 9.0mph /  14.5km/h 17.0mph /  27.4km/h 70% 0.00in /  0mm
04:49 17.9 °F /  -7.8 °C 9.8 °F /  -12.3 °C 30.26in /  1024.6hPa West 8.0mph /  12.9km/h 19.0mph /  30.6km/h 70% 0.00in /  0mm
04:54 18.0 °F /  -7.8 °C 9.9 °F /  -12.3 °C 30.27in /  1024.9hPa West 8.0mph /  12.9km/h 19.0mph /  30.6km/h 70% 0.00in /  0mm
04:59 17.9 °F /  -7.8 °C 9.8 °F /  -12.3 °C 30.27in /  1024.9hPa WNW 3.0mph /  4.8km/h 13.0mph /  20.9km/h 70% 0.00in /  0mm
05:04 17.9 °F /  -7.8 °C 9.4 °F /  -12.6 °C 30.27in /  1024.9hPa SW 8.0mph /  12.9km/h 12.0mph /  19.3km/h 69% 0.00in /  0mm
05:09 17.9 °F /  -7.8 °C 9.4 °F /  -12.6 °C 30.27in /  1024.9hPa West 7.0mph /  11.3km/h 15.0mph /  24.1km/h 69% 0.00in /  0mm
05:14 18.0 °F /  -7.8 °C 9.2 °F /  -12.7 °C 30.27in /  1024.9hPa WSW 7.0mph /  11.3km/h 15.0mph /  24.1km/h 68% 0.00in /  0mm
05:19 17.9 °F /  -7.8 °C 9.1 °F /  -12.7 °C 30.27in /  1024.9hPa WNW 5.0mph /  8km/h 16.0mph /  25.7km/h 68% 0.00in /  0mm
05:24 17.9 °F /  -7.8 °C 9.1 °F /  -12.7 °C 30.27in /  1024.9hPa West 5.0mph /  8km/h 11.0mph /  17.7km/h 68% 0.00in /  0mm
05:29 17.9 °F /  -7.8 °C 9.1 °F /  -12.7 °C 30.28in /  1025.3hPa WSW 5.0mph /  8km/h 10.0mph /  16.1km/h 68% 0.00in /  0mm
05:34 17.9 °F /  -7.8 °C 9.1 °F /  -12.7 °C 30.28in /  1025.3hPa West 8.0mph /  12.9km/h 12.0mph /  19.3km/h 68% 0.00in /  0mm
05:39 17.9 °F /  -7.8 °C 9.1 °F /  -12.7 °C 30.28in /  1025.3hPa West 7.0mph /  11.3km/h 14.0mph /  22.5km/h 68% 0.00in /  0mm
05:44 17.8 °F /  -7.9 °C 9.0 °F /  -12.8 °C 30.27in /  1024.9hPa WSW 8.0mph /  12.9km/h 16.0mph /  25.7km/h 68% 0.00in /  0mm
05:49 17.8 °F /  -7.9 °C 9.3 °F /  -12.6 °C 30.27in /  1024.9hPa WSW 8.0mph /  12.9km/h 16.0mph /  25.7km/h 69% 0.00in /  0mm
05:54 17.8 °F /  -7.9 °C 9.3 °F /  -12.6 °C 30.28in /  1025.3hPa WSW 7.0mph /  11.3km/h 16.0mph /  25.7km/h 69% 0.00in /  0mm
05:59 17.7 °F /  -7.9 °C 9.2 °F /  -12.7 °C 30.28in /  1025.3hPa WSW 7.0mph /  11.3km/h 16.0mph /  25.7km/h 69% 0.00in /  0mm
06:04 17.7 °F /  -7.9 °C 9.2 °F /  -12.7 °C 30.28in /  1025.3hPa West 8.0mph /  12.9km/h 16.0mph /  25.7km/h 69% 0.00in /  0mm
06:09 17.6 °F /  -8 °C 9.2 °F /  -12.7 °C 30.28in /  1025.3hPa West 6.0mph /  9.7km/h 15.0mph /  24.1km/h 69% 0.00in /  0mm
06:14 17.6 °F /  -8 °C 9.2 °F /  -12.7 °C 30.28in /  1025.3hPa West 5.0mph /  8km/h 16.0mph /  25.7km/h 69% 0.00in /  0mm
06:19 17.5 °F /  -8.1 °C 9.1 °F /  -12.7 °C 30.28in /  1025.3hPa WSW 6.0mph /  9.7km/h 13.0mph /  20.9km/h 69% 0.00in /  0mm
06:24 17.5 °F /  -8.1 °C 8.7 °F /  -12.9 °C 30.28in /  1025.3hPa WSW 6.0mph /  9.7km/h 11.0mph /  17.7km/h 68% 0.00in /  0mm
06:29 17.6 °F /  -8 °C 8.8 °F /  -12.9 °C 30.28in /  1025.3hPa West 4.0mph /  6.4km/h 13.0mph /  20.9km/h 68% 0.00in /  0mm
06:34 17.6 °F /  -8 °C 8.5 °F /  -13.1 °C 30.28in /  1025.3hPa WSW 5.0mph /  8km/h 15.0mph /  24.1km/h 67% 0.00in /  0mm
06:39 17.7 °F /  -7.9 °C 8.6 °F /  -13 °C 30.28in /  1025.3hPa WSW 9.0mph /  14.5km/h 11.0mph /  17.7km/h 67% 0.00in /  0mm
06:44 17.7 °F /  -7.9 °C 8.9 °F /  -12.8 °C 30.28in /  1025.3hPa WSW 6.0mph /  9.7km/h 14.0mph /  22.5km/h 68% 0.00in /  0mm
06:49 17.7 °F /  -7.9 °C 8.9 °F /  -12.8 °C 30.28in /  1025.3hPa WSW 6.0mph /  9.7km/h 14.0mph /  22.5km/h 68% 0.00in /  0mm
06:54 17.9 °F /  -7.8 °C 9.1 °F /  -12.7 °C 30.28in /  1025.3hPa West 7.0mph /  11.3km/h 15.0mph /  24.1km/h 68% 0.00in /  0mm
06:59 18.0 °F /  -7.8 °C 9.2 °F /  -12.7 °C 30.28in /  1025.3hPa WSW 8.0mph /  12.9km/h 15.0mph /  24.1km/h 68% 0.00in /  0mm
07:04 18.1 °F /  -7.7 °C 9.3 °F /  -12.6 °C 30.28in /  1025.3hPa WSW 7.0mph /  11.3km/h 13.0mph /  20.9km/h 68% 0.00in /  0mm
07:09 18.0 °F /  -7.8 °C 9.5 °F /  -12.5 °C 30.28in /  1025.3hPa SSW 7.0mph /  11.3km/h 13.0mph /  20.9km/h 69% 0.00in /  0mm
07:14 18.1 °F /  -7.7 °C 9.6 °F /  -12.4 °C 30.28in /  1025.3hPa SW 7.0mph /  11.3km/h 11.0mph /  17.7km/h 69% 0.00in /  0mm
07:19 18.1 °F /  -7.7 °C 9.6 °F /  -12.4 °C 30.28in /  1025.3hPa WSW 6.0mph /  9.7km/h 12.0mph /  19.3km/h 69% 0.00in /  0mm
07:24 18.1 °F /  -7.7 °C 9.6 °F /  -12.4 °C 30.28in /  1025.3hPa WSW 5.0mph /  8km/h 11.0mph /  17.7km/h 69% 0.00in /  0mm
07:29 18.2 °F /  -7.7 °C 9.4 °F /  -12.6 °C 30.28in /  1025.3hPa WSW 4.0mph /  6.4km/h 10.0mph /  16.1km/h 68% 0.00in /  0mm
07:34 18.2 °F /  -7.7 °C 9.7 °F /  -12.4 °C 30.28in /  1025.3hPa SW 4.0mph /  6.4km/h 14.0mph /  22.5km/h 69% 0.00in /  0mm
07:39 18.2 °F /  -7.7 °C 9.7 °F /  -12.4 °C 30.28in /  1025.3hPa WSW 7.0mph /  11.3km/h 15.0mph /  24.1km/h 69% 0.00in /  0mm
07:44 18.3 °F /  -7.6 °C 9.8 °F /  -12.3 °C 30.28in /  1025.3hPa SW 4.0mph /  6.4km/h 10.0mph /  16.1km/h 69% 0.00in /  0mm
07:49 18.4 °F /  -7.6 °C 9.6 °F /  -12.4 °C 30.28in /  1025.3hPa WSW 6.0mph /  9.7km/h 11.0mph /  17.7km/h 68% 0.00in /  0mm
07:54 18.5 °F /  -7.5 °C 9.7 °F /  -12.4 °C 30.28in /  1025.3hPa WSW 6.0mph /  9.7km/h 11.0mph /  17.7km/h 68% 0.00in /  0mm
07:59 18.6 °F /  -7.4 °C 9.8 °F /  -12.3 °C 30.28in /  1025.3hPa WSW 5.0mph /  8km/h 13.0mph /  20.9km/h 68% 0.00in /  0mm
08:04 18.8 °F /  -7.3 °C 10.0 °F /  -12.2 °C 30.29in /  1025.6hPa WSW 5.0mph /  8km/h 13.0mph /  20.9km/h 68% 0.00in /  0mm
08:09 19.0 °F /  -7.2 °C 10.2 °F /  -12.1 °C 30.29in /  1025.6hPa SSW 3.0mph /  4.8km/h 12.0mph /  19.3km/h 68% 0.00in /  0mm
08:14 19.0 °F /  -7.2 °C 10.2 °F /  -12.1 °C 30.30in /  1026hPa SW 7.0mph /  11.3km/h 13.0mph /  20.9km/h 68% 0.00in /  0mm
08:19 19.1 °F /  -7.2 °C 10.3 °F /  -12.1 °C 30.30in /  1026hPa WSW 6.0mph /  9.7km/h 13.0mph /  20.9km/h 68% 0.00in /  0mm
08:24 19.3 °F /  -7.1 °C 10.5 °F /  -11.9 °C 30.30in /  1026hPa WSW 6.0mph /  9.7km/h 12.0mph /  19.3km/h 68% 0.00in /  0mm
08:29 19.7 °F /  -6.8 °C 10.8 °F /  -11.8 °C 30.30in /  1026hPa WSW 4.0mph /  6.4km/h 11.0mph /  17.7km/h 68% 0.00in /  0mm
08:34 19.9 °F /  -6.7 °C 10.7 °F /  -11.8 °C 30.30in /  1026hPa WNW 11.0mph /  17.7km/h 16.0mph /  25.7km/h 67% 0.00in /  0mm
08:39 20.3 °F /  -6.5 °C 11.1 °F /  -11.6 °C 30.31in /  1026.3hPa West 6.0mph /  9.7km/h 11.0mph /  17.7km/h 67% 0.00in /  0mm
08:44 20.5 °F /  -6.4 °C 11.3 °F /  -11.5 °C 30.31in /  1026.3hPa WSW 4.0mph /  6.4km/h 15.0mph /  24.1km/h 67% 0.00in /  0mm
08:49 20.9 °F /  -6.2 °C 11.7 °F /  -11.3 °C 30.31in /  1026.3hPa WSW 9.0mph /  14.5km/h 11.0mph /  17.7km/h 67% 0.00in /  0mm
08:54 20.9 °F /  -6.2 °C 11.3 °F /  -11.5 °C 30.31in /  1026.3hPa WSW 7.0mph /  11.3km/h 15.0mph /  24.1km/h 66% 0.00in /  0mm
08:59 21.2 °F /  -6 °C 11.9 °F /  -11.2 °C 30.31in /  1026.3hPa WSW 8.0mph /  12.9km/h 15.0mph /  24.1km/h 67% 0.00in /  0mm
09:04 21.5 °F /  -5.8 °C 11.9 °F /  -11.2 °C 30.31in /  1026.3hPa WSW 7.0mph /  11.3km/h 13.0mph /  20.9km/h 66% 0.00in /  0mm
09:09 21.6 °F /  -5.8 °C 12.0 °F /  -11.1 °C 30.31in /  1026.3hPa West 5.0mph /  8km/h 10.0mph /  16.1km/h 66% 0.00in /  0mm
09:14 21.5 °F /  -5.8 °C 11.5 °F /  -11.4 °C 30.31in /  1026.3hPa West 4.0mph /  6.4km/h 14.0mph /  22.5km/h 65% 0.00in /  0mm
09:19 21.6 °F /  -5.8 °C 12.0 °F /  -11.1 °C 30.31in /  1026.3hPa WSW 10.0mph /  16.1km/h 14.0mph /  22.5km/h 66% 0.00in /  0mm
09:24 21.8 °F /  -5.7 °C 12.5 °F /  -10.8 °C 30.31in /  1026.3hPa WSW 7.0mph /  11.3km/h 14.0mph /  22.5km/h 67% 0.00in /  0mm
09:29 21.9 °F /  -5.6 °C 13.0 °F /  -10.6 °C 30.31in /  1026.3hPa WSW 7.0mph /  11.3km/h 14.0mph /  22.5km/h 68% 0.00in /  0mm
09:34 22.1 °F /  -5.5 °C 12.1 °F /  -11.1 °C 30.31in /  1026.3hPa WSW 6.0mph /  9.7km/h 12.0mph /  19.3km/h 65% 0.00in /  0mm
09:39 21.6 °F /  -5.8 °C 11.6 °F /  -11.3 °C 30.31in /  1026.3hPa WNW 11.0mph /  17.7km/h 16.0mph /  25.7km/h 65% 0.00in /  0mm
09:44 21.6 °F /  -5.8 °C 11.6 °F /  -11.3 °C 30.31in /  1026.3hPa WNW 4.0mph /  6.4km/h 12.0mph /  19.3km/h 65% 0.00in /  0mm
09:49 21.7 °F /  -5.7 °C 11.7 °F /  -11.3 °C 30.31in /  1026.3hPa WSW 8.0mph /  12.9km/h 14.0mph /  22.5km/h 65% 0.00in /  0mm
09:54 21.7 °F /  -5.7 °C 12.1 °F /  -11.1 °C 30.31in /  1026.3hPa SW 7.0mph /  11.3km/h 12.0mph /  19.3km/h 66% 0.00in /  0mm
09:59 22.0 °F /  -5.6 °C 12.4 °F /  -10.9 °C 30.30in /  1026hPa WSW 7.0mph /  11.3km/h 15.0mph /  24.1km/h 66% 0.00in /  0mm
10:04 22.3 °F /  -5.4 °C 12.0 °F /  -11.1 °C 30.30in /  1026hPa WSW 8.0mph /  12.9km/h 15.0mph /  24.1km/h 64% 0.00in /  0mm
10:09 22.4 °F /  -5.3 °C 12.8 °F /  -10.7 °C 30.30in /  1026hPa WSW 8.0mph /  12.9km/h 15.0mph /  24.1km/h 66% 0.00in /  0mm
10:14 22.6 °F /  -5.2 °C 13.3 °F /  -10.4 °C 30.30in /  1026hPa WNW 5.0mph /  8km/h 15.0mph /  24.1km/h 67% 0.00in /  0mm
10:19 22.7 °F /  -5.2 °C 13.4 °F /  -10.3 °C 30.30in /  1026hPa West 7.0mph /  11.3km/h 14.0mph /  22.5km/h 67% 0.00in /  0mm
10:24 22.9 °F /  -5.1 °C 13.6 °F /  -10.2 °C 30.30in /  1026hPa SW 12.0mph /  19.3km/h 16.0mph /  25.7km/h 67% 0.00in /  0mm
10:29 22.6 °F /  -5.2 °C 13.3 °F /  -10.4 °C 30.30in /  1026hPa WSW 8.0mph /  12.9km/h 16.0mph /  25.7km/h 67% 0.00in /  0mm
10:34 22.5 °F /  -5.3 °C 13.5 °F /  -10.3 °C 30.30in /  1026hPa WSW 8.0mph /  12.9km/h 14.0mph /  22.5km/h 68% 0.00in /  0mm
10:39 22.3 °F /  -5.4 °C 13.3 °F /  -10.4 °C 30.29in /  1025.6hPa WSW 7.0mph /  11.3km/h 16.0mph /  25.7km/h 68% 0.00in /  0mm
10:44 22.5 °F /  -5.3 °C 13.5 °F /  -10.3 °C 30.29in /  1025.6hPa WSW 7.0mph /  11.3km/h 16.0mph /  25.7km/h 68% 0.00in /  0mm
10:49 22.7 °F /  -5.2 °C 14.1 °F /  -9.9 °C 30.28in /  1025.3hPa South 6.0mph /  9.7km/h 10.0mph /  16.1km/h 69% 0.00in /  0mm
10:54 22.7 °F /  -5.2 °C 13.7 °F /  -10.2 °C 30.28in /  1025.3hPa SW 7.0mph /  11.3km/h 12.0mph /  19.3km/h 68% 0.00in /  0mm
10:59 22.5 °F /  -5.3 °C 13.5 °F /  -10.3 °C 30.28in /  1025.3hPa SW 7.0mph /  11.3km/h 14.0mph /  22.5km/h 68% 0.00in /  0mm
11:04 22.5 °F /  -5.3 °C 13.5 °F /  -10.3 °C 30.27in /  1024.9hPa SW 7.0mph /  11.3km/h 14.0mph /  22.5km/h 68% 0.00in /  0mm
11:09 22.5 °F /  -5.3 °C 13.2 °F /  -10.4 °C 30.27in /  1024.9hPa West 4.0mph /  6.4km/h 11.0mph /  17.7km/h 67% 0.00in /  0mm
11:14 22.7 °F /  -5.2 °C 13.7 °F /  -10.2 °C 30.27in /  1024.9hPa SSW 9.0mph /  14.5km/h 14.0mph /  22.5km/h 68% 0.00in /  0mm
11:19 22.9 °F /  -5.1 °C 13.9 °F /  -10.1 °C 30.26in /  1024.6hPa SW 6.0mph /  9.7km/h 13.0mph /  20.9km/h 68% 0.00in /  0mm
11:24 23.1 °F /  -4.9 °C 13.8 °F /  -10.1 °C 30.26in /  1024.6hPa SSE 6.0mph /  9.7km/h 11.0mph /  17.7km/h 67% 0.00in /  0mm
11:29 24.1 °F /  -4.4 °C 14.7 °F /  -9.6 °C 30.26in /  1024.6hPa SSW 6.0mph /  9.7km/h 11.0mph /  17.7km/h 67% 0.00in /  0mm
11:34 24.2 °F /  -4.3 °C 14.5 °F /  -9.7 °C 30.26in /  1024.6hPa SW 5.0mph /  8km/h 10.0mph /  16.1km/h 66% 0.00in /  0mm
11:39 23.6 °F /  -4.7 °C 13.5 °F /  -10.3 °C 30.26in /  1024.6hPa SW 6.0mph /  9.7km/h 14.0mph /  22.5km/h 65% 0.00in /  0mm
11:44 23.7 °F /  -4.6 °C 13.6 °F /  -10.2 °C 30.25in /  1024.3hPa SW 9.0mph /  14.5km/h 11.0mph /  17.7km/h 65% 0.00in /  0mm
11:49 23.7 °F /  -4.6 °C 12.9 °F /  -10.6 °C 30.25in /  1024.3hPa WSW 9.0mph /  14.5km/h 16.0mph /  25.7km/h 63% 0.00in /  0mm
11:54 23.7 °F /  -4.6 °C 13.3 °F /  -10.4 °C 30.25in /  1024.3hPa SW 11.0mph /  17.7km/h 13.0mph /  20.9km/h 64% 0.00in /  0mm
11:59 23.7 °F /  -4.6 °C 14.0 °F /  -10 °C 30.25in /  1024.3hPa WSW 4.0mph /  6.4km/h 14.0mph /  22.5km/h 66% 0.00in /  0mm
12:04 23.6 °F /  -4.7 °C 13.5 °F /  -10.3 °C 30.24in /  1023.9hPa WSW 6.0mph /  9.7km/h 14.0mph /  22.5km/h 65% 0.00in /  0mm
12:09 24.1 °F /  -4.4 °C 14.4 °F /  -9.8 °C 30.25in /  1024.3hPa SW 6.0mph /  9.7km/h 10.0mph /  16.1km/h 66% 0.00in /  0mm
12:14 24.1 °F /  -4.4 °C 14.7 °F /  -9.6 °C 30.24in /  1023.9hPa South 6.0mph /  9.7km/h 15.0mph /  24.1km/h 67% 0.00in /  0mm
12:19 23.9 °F /  -4.5 °C 14.9 °F /  -9.5 °C 30.24in /  1023.9hPa SW 7.0mph /  11.3km/h 12.0mph /  19.3km/h 68% 0.00in /  0mm
12:24 23.9 °F /  -4.5 °C 14.5 °F /  -9.7 °C 30.23in /  1023.6hPa WSW 8.0mph /  12.9km/h 12.0mph /  19.3km/h 67% 0.00in /  0mm
12:29 23.8 °F /  -4.6 °C 14.4 °F /  -9.8 °C 30.23in /  1023.6hPa West 9.0mph /  14.5km/h 13.0mph /  20.9km/h 67% 0.00in /  0mm
12:34 24.6 °F /  -4.1 °C 15.5 °F /  -9.2 °C 30.23in /  1023.6hPa WSW 13.0mph /  20.9km/h 13.0mph /  20.9km/h 68% 0.00in /  0mm
12:39 24.2 °F /  -4.3 °C 14.5 °F /  -9.7 °C 30.23in /  1023.6hPa SW 6.0mph /  9.7km/h 13.0mph /  20.9km/h 66% 0.00in /  0mm
12:44 24.2 °F /  -4.3 °C 14.8 °F /  -9.6 °C 30.22in /  1023.2hPa South 7.0mph /  11.3km/h 11.0mph /  17.7km/h 67% 0.00in /  0mm
12:49 24.2 °F /  -4.3 °C 15.2 °F /  -9.3 °C 30.22in /  1023.2hPa WSW 8.0mph /  12.9km/h 14.0mph /  22.5km/h 68% 0.00in /  0mm
12:54 24.4 °F /  -4.2 °C 15.3 °F /  -9.3 °C 30.22in /  1023.2hPa WSW 6.0mph /  9.7km/h 13.0mph /  20.9km/h 68% 0.00in /  0mm
12:59 24.7 °F /  -4.1 °C 15.3 °F /  -9.3 °C 30.22in /  1023.2hPa SW 6.0mph /  9.7km/h 13.0mph /  20.9km/h 67% 0.00in /  0mm
13:04 24.5 °F /  -4.2 °C 15.4 °F /  -9.2 °C 30.21in /  1022.9hPa West 2.0mph /  3.2km/h 12.0mph /  19.3km/h 68% 0.00in /  0mm
13:09 24.6 °F /  -4.1 °C 15.2 °F /  -9.3 °C 30.21in /  1022.9hPa WSW 7.0mph /  11.3km/h 13.0mph /  20.9km/h 67% 0.00in /  0mm
13:14 24.7 °F /  -4.1 °C 15.3 °F /  -9.3 °C 30.21in /  1022.9hPa WSW 7.0mph /  11.3km/h 14.0mph /  22.5km/h 67% 0.00in /  0mm
13:19 24.6 °F /  -4.1 °C 15.2 °F /  -9.3 °C 30.20in /  1022.6hPa WSW 7.0mph /  11.3km/h 14.0mph /  22.5km/h 67% 0.00in /  0mm
13:24 24.6 °F /  -4.1 °C 15.9 °F /  -8.9 °C 30.20in /  1022.6hPa WSW 7.0mph /  11.3km/h 12.0mph /  19.3km/h 69% 0.00in /  0mm
13:29 24.8 °F /  -4 °C 16.4 °F /  -8.7 °C 30.20in /  1022.6hPa SW 6.0mph /  9.7km/h 11.0mph /  17.7km/h 70% 0.00in /  0mm
13:34 24.7 °F /  -4.1 °C 16.6 °F /  -8.6 °C 30.19in /  1022.2hPa West 5.0mph /  8km/h 12.0mph /  19.3km/h 71% 0.00in /  0mm
13:39 24.9 °F /  -3.9 °C 16.8 °F /  -8.4 °C 30.19in /  1022.2hPa WSW 6.0mph /  9.7km/h 10.0mph /  16.1km/h 71% 0.00in /  0mm
13:44 24.8 °F /  -4 °C 17.4 °F /  -8.1 °C 30.18in /  1021.9hPa SW 5.0mph /  8km/h 11.0mph /  17.7km/h 73% 0.00in /  0mm
13:49 24.6 °F /  -4.1 °C 18.1 °F /  -7.7 °C 30.18in /  1021.9hPa SSW 5.0mph /  8km/h 11.0mph /  17.7km/h 76% 0.00in /  0mm
13:54 24.4 °F /  -4.2 °C 17.9 °F /  -7.8 °C 30.18in /  1021.9hPa WSW 4.0mph /  6.4km/h 10.0mph /  16.1km/h 76% 0.00in /  0mm
13:59 24.2 °F /  -4.3 °C 18.3 °F /  -7.6 °C 30.17in /  1021.6hPa SSW 4.0mph /  6.4km/h 10.0mph /  16.1km/h 78% 0.00in /  0mm
14:04 24.0 °F /  -4.4 °C 18.4 °F /  -7.6 °C 30.16in /  1021.2hPa SSW 1.0mph /  1.6km/h 8.0mph /  12.9km/h 79% 0.00in /  0mm
14:09 23.8 °F /  -4.6 °C 18.5 °F /  -7.5 °C 30.16in /  1021.2hPa SW 4.0mph /  6.4km/h 7.0mph /  11.3km/h 80% 0.00in /  0mm
14:14 23.8 °F /  -4.6 °C 18.8 °F /  -7.3 °C 30.16in /  1021.2hPa SW 4.0mph /  6.4km/h 10.0mph /  16.1km/h 81% 0.00in /  0mm
14:19 24.1 °F /  -4.4 °C 19.4 °F /  -7 °C 30.16in /  1021.2hPa SW 4.0mph /  6.4km/h 10.0mph /  16.1km/h 82% 0.00in /  0mm
14:24 23.9 °F /  -4.5 °C 19.2 °F /  -7.1 °C 30.15in /  1020.9hPa SSW 4.0mph /  6.4km/h 8.0mph /  12.9km/h 82% 0.00in /  0mm
14:29 23.8 °F /  -4.6 °C 19.4 °F /  -7 °C 30.15in /  1020.9hPa SW 4.0mph /  6.4km/h 8.0mph /  12.9km/h 83% 0.00in /  0mm
14:34 23.7 °F /  -4.6 °C 19.6 °F /  -6.9 °C 30.14in /  1020.5hPa SSW 4.0mph /  6.4km/h 7.0mph /  11.3km/h 84% 0.00in /  0mm
14:39 23.7 °F /  -4.6 °C 19.9 °F /  -6.7 °C 30.14in /  1020.5hPa SSW 4.0mph /  6.4km/h 7.0mph /  11.3km/h 85% 0.00in /  0mm
14:44 23.8 °F /  -4.6 °C 19.9 °F /  -6.7 °C 30.14in /  1020.5hPa SSW 3.0mph /  4.8km/h 7.0mph /  11.3km/h 85% 0.00in /  0mm
14:49 23.7 °F /  -4.6 °C 19.9 °F /  -6.7 °C 30.14in /  1020.5hPa South 6.0mph /  9.7km/h 7.0mph /  11.3km/h 85% 0.00in /  0mm
14:54 23.8 °F /  -4.6 °C 20.2 °F /  -6.6 °C 30.13in /  1020.2hPa South 3.0mph /  4.8km/h 7.0mph /  11.3km/h 86% 0.00in /  0mm
14:59 23.7 °F /  -4.6 °C 19.9 °F /  -6.7 °C 30.13in /  1020.2hPa South 7.0mph /  11.3km/h 9.0mph /  14.5km/h 85% 0.00in /  0mm
15:04 23.7 °F /  -4.6 °C 19.9 °F /  -6.7 °C 30.14in /  1020.5hPa SSW 5.0mph /  8km/h 10.0mph /  16.1km/h 85% 0.00in /  0mm
15:09 23.4 °F /  -4.8 °C 19.6 °F /  -6.9 °C 30.13in /  1020.2hPa South 5.0mph /  8km/h 10.0mph /  16.1km/h 85% 0.00in /  0mm
15:14 23.4 °F /  -4.8 °C 19.6 °F /  -6.9 °C 30.12in /  1019.9hPa SSE 4.0mph /  6.4km/h 11.0mph /  17.7km/h 85% 0.00in /  0mm
15:19 23.2 °F /  -4.9 °C 19.4 °F /  -7 °C 30.12in /  1019.9hPa South 6.0mph /  9.7km/h 12.0mph /  19.3km/h 85% 0.00in /  0mm
15:24 23.3 °F /  -4.8 °C 19.7 °F /  -6.8 °C 30.12in /  1019.9hPa South 6.0mph /  9.7km/h 12.0mph /  19.3km/h 86% 0.00in /  0mm
15:29 23.1 °F /  -4.9 °C 19.3 °F /  -7.1 °C 30.11in /  1019.5hPa South 7.0mph /  11.3km/h 14.0mph /  22.5km/h 85% 0.00in /  0mm
15:34 23.0 °F /  -5 °C 19.4 °F /  -7 °C 30.11in /  1019.5hPa South 6.0mph /  9.7km/h 14.0mph /  22.5km/h 86% 0.00in /  0mm
15:39 23.1 °F /  -4.9 °C 19.5 °F /  -6.9 °C 30.11in /  1019.5hPa SSW 8.0mph /  12.9km/h 9.0mph /  14.5km/h 86% 0.00in /  0mm
15:44 23.1 °F /  -4.9 °C 19.5 °F /  -6.9 °C 30.11in /  1019.5hPa SSW 6.0mph /  9.7km/h 13.0mph /  20.9km/h 86% 0.00in /  0mm
15:49 23.1 °F /  -4.9 °C 19.5 °F /  -6.9 °C 30.10in /  1019.2hPa SSW 5.0mph /  8km/h 10.0mph /  16.1km/h 86% 0.00in /  0mm
15:54 23.1 °F /  -4.9 °C 19.5 °F /  -6.9 °C 30.09in /  1018.8hPa South 6.0mph /  9.7km/h 10.0mph /  16.1km/h 86% 0.00in /  0mm
15:59 23.1 °F /  -4.9 °C 19.5 °F /  -6.9 °C 30.09in /  1018.8hPa South 5.0mph /  8km/h 11.0mph /  17.7km/h 86% 0.00in /  0mm
16:04 23.2 °F /  -4.9 °C 19.6 °F /  -6.9 °C 30.08in /  1018.5hPa SSW 5.0mph /  8km/h 10.0mph /  16.1km/h 86% 0.00in /  0mm
16:09 23.2 °F /  -4.9 °C 19.9 °F /  -6.7 °C 30.08in /  1018.5hPa South 3.0mph /  4.8km/h 10.0mph /  16.1km/h 87% 0.00in /  0mm
16:14 23.3 °F /  -4.8 °C 20.0 °F /  -6.7 °C 30.08in /  1018.5hPa South 5.0mph /  8km/h 11.0mph /  17.7km/h 87% 0.00in /  0mm
16:19 23.3 °F /  -4.8 °C 20.0 °F /  -6.7 °C 30.07in /  1018.2hPa South 7.0mph /  11.3km/h 11.0mph /  17.7km/h 87% 0.00in /  0mm
16:24 23.4 °F /  -4.8 °C 20.1 °F /  -6.6 °C 30.06in /  1017.8hPa South 5.0mph /  8km/h 11.0mph /  17.7km/h 87% 0.00in /  0mm
16:29 23.5 °F /  -4.7 °C 20.2 °F /  -6.6 °C 30.05in /  1017.5hPa South 4.0mph /  6.4km/h 9.0mph /  14.5km/h 87% 0.00in /  0mm
16:34 23.7 °F /  -4.6 °C 20.4 °F /  -6.4 °C 30.04in /  1017.2hPa South 4.0mph /  6.4km/h 8.0mph /  12.9km/h 87% 0.00in /  0mm
16:39 23.6 °F /  -4.7 °C 20.3 °F /  -6.5 °C 30.04in /  1017.2hPa South 4.0mph /  6.4km/h 9.0mph /  14.5km/h 87% 0.00in /  0mm
16:44 23.6 °F /  -4.7 °C 20.3 °F /  -6.5 °C 30.03in /  1016.8hPa South 4.0mph /  6.4km/h 10.0mph /  16.1km/h 87% 0.00in /  0mm
16:49 23.6 °F /  -4.7 °C 20.3 °F /  -6.5 °C 30.02in /  1016.5hPa South 2.0mph /  3.2km/h 7.0mph /  11.3km/h 87% 0.00in /  0mm
16:54 23.5 °F /  -4.7 °C 20.2 °F /  -6.6 °C 30.01in /  1016.1hPa SSE 3.0mph /  4.8km/h 8.0mph /  12.9km/h 87% 0.00in /  0mm
16:59 23.4 °F /  -4.8 °C 20.1 °F /  -6.6 °C 30.01in /  1016.1hPa SSW 3.0mph /  4.8km/h 7.0mph /  11.3km/h 87% 0.00in /  0mm
17:04 23.4 °F /  -4.8 °C 20.1 °F /  -6.6 °C 30.00in /  1015.8hPa SE 5.0mph /  8km/h 10.0mph /  16.1km/h 87% 0.00in /  0mm
17:09 23.3 °F /  -4.8 °C 20.0 °F /  -6.7 °C 29.99in /  1015.5hPa ESE 3.0mph /  4.8km/h 8.0mph /  12.9km/h 87% 0.00in /  0mm
17:14 23.3 °F /  -4.8 °C 20.3 °F /  -6.5 °C 30.00in /  1015.8hPa South 2.0mph /  3.2km/h 7.0mph /  11.3km/h 88% 0.00in /  0mm
17:19 23.4 °F /  -4.8 °C 20.4 °F /  -6.4 °C 30.00in /  1015.8hPa SSE 4.0mph /  6.4km/h 7.0mph /  11.3km/h 88% 0.00in /  0mm
17:24 23.5 °F /  -4.7 °C 20.5 °F /  -6.4 °C 29.99in /  1015.5hPa SE 5.0mph /  8km/h 6.0mph /  9.7km/h 88% 0.00in /  0mm
17:29 23.5 °F /  -4.7 °C 20.5 °F /  -6.4 °C 30.00in /  1015.8hPa SSE 1.0mph /  1.6km/h 6.0mph /  9.7km/h 88% 0.00in /  0mm
17:34 23.6 °F /  -4.7 °C 20.6 °F /  -6.3 °C 29.99in /  1015.5hPa SSE 3.0mph /  4.8km/h 6.0mph /  9.7km/h 88% 0.00in /  0mm
17:39 23.7 °F /  -4.6 °C 20.4 °F /  -6.4 °C 29.99in /  1015.5hPa SSE 2.0mph /  3.2km/h 5.0mph /  8km/h 87% 0.00in /  0mm
17:44 23.6 °F /  -4.7 °C 20.3 °F /  -6.5 °C 29.98in /  1015.1hPa SE 2.0mph /  3.2km/h 7.0mph /  11.3km/h 87% 0.00in /  0mm
17:49 23.7 °F /  -4.6 °C 20.4 °F /  -6.4 °C 29.98in /  1015.1hPa SE 2.0mph /  3.2km/h 7.0mph /  11.3km/h 87% 0.00in /  0mm
17:54 23.7 °F /  -4.6 °C 20.4 °F /  -6.4 °C 29.97in /  1014.8hPa SE 1.0mph /  1.6km/h 5.0mph /  8km/h 87% 0.00in /  0mm
17:59 23.8 °F /  -4.6 °C 20.5 °F /  -6.4 °C 29.97in /  1014.8hPa SE 3.0mph /  4.8km/h 5.0mph /  8km/h 87% 0.00in /  0mm
18:04 23.8 °F /  -4.6 °C 20.5 °F /  -6.4 °C 29.96in /  1014.4hPa SE 3.0mph /  4.8km/h 6.0mph /  9.7km/h 87% 0.00in /  0mm
18:09 23.8 °F /  -4.6 °C 20.5 °F /  -6.4 °C 29.96in /  1014.4hPa ESE 2.0mph /  3.2km/h 6.0mph /  9.7km/h 87% 0.00in /  0mm
18:14 24.0 °F /  -4.4 °C 20.7 °F /  -6.3 °C 29.96in /  1014.4hPa SE 2.0mph /  3.2km/h 4.0mph /  6.4km/h 87% 0.00in /  0mm
18:19 24.0 °F /  -4.4 °C 20.4 °F /  -6.4 °C 29.96in /  1014.4hPa SE 1.0mph /  1.6km/h 4.0mph /  6.4km/h 86% 0.00in /  0mm
18:24 24.2 °F /  -4.3 °C 20.6 °F /  -6.3 °C 29.96in /  1014.4hPa SE 2.0mph /  3.2km/h 5.0mph /  8km/h 86% 0.00in /  0mm
18:29 24.3 °F /  -4.3 °C 20.7 °F /  -6.3 °C 29.95in /  1014.1hPa ESE 3.0mph /  4.8km/h 4.0mph /  6.4km/h 86% 0.00in /  0mm
18:34 24.4 °F /  -4.2 °C 20.5 °F /  -6.4 °C 29.96in /  1014.4hPa SE 2.0mph /  3.2km/h 5.0mph /  8km/h 85% 0.00in /  0mm
18:39 24.5 °F /  -4.2 °C 20.6 °F /  -6.3 °C 29.96in /  1014.4hPa ESE 2.0mph /  3.2km/h 5.0mph /  8km/h 85% 0.00in /  0mm
18:44 24.6 °F /  -4.1 °C 20.7 °F /  -6.3 °C 29.96in /  1014.4hPa ESE 1.0mph /  1.6km/h 4.0mph /  6.4km/h 85% 0.00in /  0mm
18:49 24.7 °F /  -4.1 °C 20.8 °F /  -6.2 °C 29.96in /  1014.4hPa East 1.0mph /  1.6km/h 3.0mph /  4.8km/h 85% 0.00in /  0mm
18:54 24.8 °F /  -4 °C 20.9 °F /  -6.2 °C 29.96in /  1014.4hPa East 1.0mph /  1.6km/h 3.0mph /  4.8km/h 85% 0.00in /  0mm
18:59 24.7 °F /  -4.1 °C 20.8 °F /  -6.2 °C 29.97in /  1014.8hPa SE 2.0mph /  3.2km/h 2.0mph /  3.2km/h 85% 0.00in /  0mm
19:04 24.8 °F /  -4 °C 20.9 °F /  -6.2 °C 29.96in /  1014.4hPa Calm   3.0mph /  4.8km/h 85% 0.00in /  0mm
19:09 24.8 °F /  -4 °C 20.7 °F /  -6.3 °C 29.96in /  1014.4hPa SE 1.0mph /  1.6km/h 3.0mph /  4.8km/h 84% 0.00in /  0mm
19:14 25.0 °F /  -3.9 °C 20.8 °F /  -6.2 °C 29.95in /  1014.1hPa SE 1.0mph /  1.6km/h 3.0mph /  4.8km/h 84% 0.00in /  0mm
19:19 25.0 °F /  -3.9 °C 20.8 °F /  -6.2 °C 29.95in /  1014.1hPa Calm   3.0mph /  4.8km/h 84% 0.00in /  0mm
19:24 25.1 °F /  -3.8 °C 20.7 °F /  -6.3 °C 29.94in /  1013.8hPa SE 2.0mph /  3.2km/h 4.0mph /  6.4km/h 83% 0.00in /  0mm
19:29 25.2 °F /  -3.8 °C 20.8 °F /  -6.2 °C 29.94in /  1013.8hPa SSE 1.0mph /  1.6km/h 3.0mph /  4.8km/h 83% 0.00in /  0mm
19:34 25.3 °F /  -3.7 °C 20.6 °F /  -6.3 °C 29.94in /  1013.8hPa Calm   4.0mph /  6.4km/h 82% 0.00in /  0mm
19:39 25.3 °F /  -3.7 °C 20.6 °F /  -6.3 °C 29.93in /  1013.4hPa Calm   3.0mph /  4.8km/h 82% 0.00in /  0mm
19:44 25.4 °F /  -3.7 °C 20.7 °F /  -6.3 °C 29.93in /  1013.4hPa SE 1.0mph /  1.6km/h 3.0mph /  4.8km/h 82% 0.00in /  0mm
19:49 25.4 °F /  -3.7 °C 20.7 °F /  -6.3 °C 29.92in /  1013.1hPa SE 2.0mph /  3.2km/h 5.0mph /  8km/h 82% 0.00in /  0mm
19:54 25.4 °F /  -3.7 °C 20.4 °F /  -6.4 °C 29.92in /  1013.1hPa SE 2.0mph /  3.2km/h 5.0mph /  8km/h 81% 0.00in /  0mm
19:59 25.4 °F /  -3.7 °C 20.4 °F /  -6.4 °C 29.91in /  1012.8hPa SSE 1.0mph /  1.6km/h 4.0mph /  6.4km/h 81% 0.00in /  0mm
20:04 25.6 °F /  -3.6 °C 20.3 °F /  -6.5 °C 29.91in /  1012.8hPa SSE 1.0mph /  1.6km/h 4.0mph /  6.4km/h 80% 0.00in /  0mm
20:09 25.8 °F /  -3.4 °C 20.2 °F /  -6.6 °C 29.90in /  1012.4hPa SSW 4.0mph /  6.4km/h 7.0mph /  11.3km/h 79% 0.00in /  0mm
20:14 26.1 °F /  -3.3 °C 19.6 °F /  -6.9 °C 29.90in /  1012.4hPa South 3.0mph /  4.8km/h 7.0mph /  11.3km/h 76% 0.00in /  0mm
20:19 26.3 °F /  -3.2 °C 19.1 °F /  -7.2 °C 29.90in /  1012.4hPa South 4.0mph /  6.4km/h 7.0mph /  11.3km/h 74% 0.00in /  0mm
20:24 26.5 °F /  -3.1 °C 19.0 °F /  -7.2 °C 29.89in /  1012.1hPa South 4.0mph /  6.4km/h 8.0mph /  12.9km/h 73% 0.00in /  0mm
20:29 26.8 °F /  -2.9 °C 18.7 °F /  -7.4 °C 29.89in /  1012.1hPa SSW 6.0mph /  9.7km/h 7.0mph /  11.3km/h 71% 0.00in /  0mm
20:34 26.9 °F /  -2.8 °C 18.4 °F /  -7.6 °C 29.88in /  1011.7hPa SW 3.0mph /  4.8km/h 12.0mph /  19.3km/h 70% 0.00in /  0mm
20:39 27.2 °F /  -2.7 °C 18.4 °F /  -7.6 °C 29.88in /  1011.7hPa SSW 3.0mph /  4.8km/h 9.0mph /  14.5km/h 69% 0.00in /  0mm
20:44 27.4 °F /  -2.6 °C 17.9 °F /  -7.8 °C 29.88in /  1011.7hPa South 5.0mph /  8km/h 9.0mph /  14.5km/h 67% 0.00in /  0mm
20:49 27.6 °F /  -2.4 °C 17.4 °F /  -8.1 °C 29.87in /  1011.4hPa SSW 5.0mph /  8km/h 14.0mph /  22.5km/h 65% 0.00in /  0mm
20:54 27.8 °F /  -2.3 °C 17.2 °F /  -8.2 °C 29.86in /  1011.1hPa SSW 5.0mph /  8km/h 14.0mph /  22.5km/h 64% 0.00in /  0mm
20:59 27.9 °F /  -2.3 °C 16.9 °F /  -8.4 °C 29.87in /  1011.4hPa South 6.0mph /  9.7km/h 12.0mph /  19.3km/h 63% 0.00in /  0mm
21:04 28.2 °F /  -2.1 °C 17.2 °F /  -8.2 °C 29.87in /  1011.4hPa South 9.0mph /  14.5km/h 9.0mph /  14.5km/h 63% 0.00in /  0mm
21:09 28.3 °F /  -2.1 °C 16.6 °F /  -8.6 °C 29.87in /  1011.4hPa SW 5.0mph /  8km/h 11.0mph /  17.7km/h 61% 0.00in /  0mm
21:14 28.4 °F /  -2 °C 16.7 °F /  -8.5 °C 29.86in /  1011.1hPa SSW 5.0mph /  8km/h 12.0mph /  19.3km/h 61% 0.00in /  0mm
21:19 28.4 °F /  -2 °C 16.7 °F /  -8.5 °C 29.86in /  1011.1hPa SSW 4.0mph /  6.4km/h 12.0mph /  19.3km/h 61% 0.00in /  0mm
21:24 28.5 °F /  -1.9 °C 16.4 °F /  -8.7 °C 29.86in /  1011.1hPa SSW 4.0mph /  6.4km/h 10.0mph /  16.1km/h 60% 0.00in /  0mm
21:29 28.7 °F /  -1.8 °C 16.9 °F /  -8.4 °C 29.86in /  1011.1hPa SSW 4.0mph /  6.4km/h 10.0mph /  16.1km/h 61% 0.00in /  0mm
21:34 28.7 °F /  -1.8 °C 16.6 °F /  -8.6 °C 29.86in /  1011.1hPa SW 3.0mph /  4.8km/h 8.0mph /  12.9km/h 60% 0.00in /  0mm
21:39 28.9 °F /  -1.7 °C 16.4 °F /  -8.7 °C 29.85in /  1010.7hPa SSW 5.0mph /  8km/h 11.0mph /  17.7km/h 59% 0.00in /  0mm
21:44 28.9 °F /  -1.7 °C 16.4 °F /  -8.7 °C 29.85in /  1010.7hPa SSW 5.0mph /  8km/h 11.0mph /  17.7km/h 59% 0.00in /  0mm
21:49 29.0 °F /  -1.7 °C 16.4 °F /  -8.7 °C 29.84in /  1010.4hPa SSW 5.0mph /  8km/h 9.0mph /  14.5km/h 59% 0.00in /  0mm
21:54 29.0 °F /  -1.7 °C 16.1 °F /  -8.8 °C 29.83in /  1010hPa SSW 5.0mph /  8km/h 10.0mph /  16.1km/h 58% 0.00in /  0mm
21:59 29.2 °F /  -1.6 °C 16.6 °F /  -8.6 °C 29.83in /  1010hPa SSE 8.0mph /  12.9km/h 9.0mph /  14.5km/h 59% 0.00in /  0mm
22:04 29.2 °F /  -1.6 °C 16.6 °F /  -8.6 °C 29.83in /  1010hPa SSW 4.0mph /  6.4km/h 8.0mph /  12.9km/h 59% 0.00in /  0mm
22:09 29.3 °F /  -1.5 °C 16.7 °F /  -8.5 °C 29.83in /  1010hPa WSW 4.0mph /  6.4km/h 10.0mph /  16.1km/h 59% 0.00in /  0mm
22:14 29.5 °F /  -1.4 °C 16.5 °F /  -8.6 °C 29.84in /  1010.4hPa SW 5.0mph /  8km/h 10.0mph /  16.1km/h 58% 0.00in /  0mm
22:19 29.5 °F /  -1.4 °C 16.9 °F /  -8.4 °C 29.83in /  1010hPa SSW 4.0mph /  6.4km/h 10.0mph /  16.1km/h 59% 0.00in /  0mm
22:24 29.5 °F /  -1.4 °C 17.3 °F /  -8.2 °C 29.82in /  1009.7hPa SSW 4.0mph /  6.4km/h 8.0mph /  12.9km/h 60% 0.00in /  0mm
22:29 29.6 °F /  -1.3 °C 17.0 °F /  -8.3 °C 29.82in /  1009.7hPa SSW 5.0mph /  8km/h 10.0mph /  16.1km/h 59% 0.00in /  0mm
22:34 29.7 °F /  -1.3 °C 17.1 °F /  -8.3 °C 29.83in /  1010hPa SW 6.0mph /  9.7km/h 7.0mph /  11.3km/h 59% 0.00in /  0mm
22:39 29.8 °F /  -1.2 °C 17.6 °F /  -8 °C 29.82in /  1009.7hPa SSW 4.0mph /  6.4km/h 8.0mph /  12.9km/h 60% 0.00in /  0mm
22:44 29.9 °F /  -1.2 °C 17.3 °F /  -8.2 °C 29.82in /  1009.7hPa South 4.0mph /  6.4km/h 11.0mph /  17.7km/h 59% 0.00in /  0mm
22:49 30.0 °F /  -1.1 °C 17.4 °F /  -8.1 °C 29.82in /  1009.7hPa SW 3.0mph /  4.8km/h 9.0mph /  14.5km/h 59% 0.00in /  0mm
22:54 30.1 °F /  -1.1 °C 17.9 °F /  -7.8 °C 29.82in /  1009.7hPa SW 5.0mph /  8km/h 8.0mph /  12.9km/h 60% 0.00in /  0mm
22:59 30.1 °F /  -1.1 °C 17.9 °F /  -7.8 °C 29.82in /  1009.7hPa SSW 6.0mph /  9.7km/h 6.0mph /  9.7km/h 60% 0.00in /  0mm
23:04 30.2 °F /  -1 °C 18.4 °F /  -7.6 °C 29.82in /  1009.7hPa South 7.0mph /  11.3km/h 7.0mph /  11.3km/h 61% 0.00in /  0mm
23:09 30.3 °F /  -0.9 °C 18.5 °F /  -7.5 °C 29.82in /  1009.7hPa SW 4.0mph /  6.4km/h 8.0mph /  12.9km/h 61% 0.00in /  0mm
23:14 30.4 °F /  -0.9 °C 18.2 °F /  -7.7 °C 29.82in /  1009.7hPa SW 4.0mph /  6.4km/h 8.0mph /  12.9km/h 60% 0.00in /  0mm
23:19 30.5 °F /  -0.8 °C 18.3 °F /  -7.6 °C 29.82in /  1009.7hPa WSW 4.0mph /  6.4km/h 9.0mph /  14.5km/h 60% 0.00in /  0mm
23:24 30.6 °F /  -0.8 °C 18.3 °F /  -7.6 °C 29.82in /  1009.7hPa SW 4.0mph /  6.4km/h 9.0mph /  14.5km/h 60% 0.00in /  0mm
23:29 30.7 °F /  -0.7 °C 18.4 °F /  -7.6 °C 29.82in /  1009.7hPa SW 3.0mph /  4.8km/h 8.0mph /  12.9km/h 60% 0.00in /  0mm
23:34 30.9 °F /  -0.6 °C 19.0 °F /  -7.2 °C 29.82in /  1009.7hPa SW 4.0mph /  6.4km/h 9.0mph /  14.5km/h 61% 0.00in /  0mm
23:39 31.0 °F /  -0.6 °C 18.7 °F /  -7.4 °C 29.82in /  1009.7hPa SSW 2.0mph /  3.2km/h 8.0mph /  12.9km/h 60% 0.00in /  0mm
23:44 31.0 °F /  -0.6 °C 19.1 °F /  -7.2 °C 29.81in /  1009.4hPa SW 4.0mph /  6.4km/h 8.0mph /  12.9km/h 61% 0.00in /  0mm
23:49 31.0 °F /  -0.6 °C 19.1 °F /  -7.2 °C 29.81in /  1009.4hPa SSW 4.0mph /  6.4km/h 7.0mph /  11.3km/h 61% 0.00in /  0mm
23:54 31.1 °F /  -0.5 °C 19.6 °F /  -6.9 °C 29.81in /  1009.4hPa SW 3.0mph /  4.8km/h 7.0mph /  11.3km/h 62% 0.00in /  0mm
23:59 31.1 °F /  -0.5 °C 19.2 °F /  -7.1 °C 29.81in /  1009.4hPa SW 3.0mph /  4.8km/h 7.0mph /  11.3km/h 61% 0.00in /  0mm
Buffalo, New York, USA
Compliments of Weather Underground - 2.5 mb